Bryson City, NC

09:08 EDT le 27 août 2014 (GMT -0400)
Andrews | Change Station
CLOSE
Current Station
Aéroport
Location: Andrews,
Altitude: 1696 ft
Stations météo à proximité

Alt. 1696 ft 35.20 °N, 83.86 °W | Updated 13 minutes ago

Overcast
Couvert
61 ° F
Paraît 61 ° F
N
0
Vent Variable Vent de Nord

Aujourd'hui
Haut(e) -- | Bas -- ° F
--% Risque de précip.
Hier
Haut(e) -- | Bas -- ° F
Precip. -- pouce
7:02 AM 8:07 PM
Lune montante, 3% visible
Pression 30.18 pouce
Visibilité 1.0 Miles terrestres
Nuages Couvert 200 ft
Point de rosée 61 ° F
Humidité 100%
Précipitations 0.00 pouce
Profondeur de la couche neigeuse Non disponible.
UV 1 sur 12
Pollen 9.50 sur 12
Ozone Bon
PM2.5 Bon
Flu Activity Non disponible.
METAR KRHP 271255Z AUTO 00000KT 1SM BR OVC002 16/16 A3018 RMK AO2 T01610161

More Conditions Fewer Conditions

Pression 30.18 pouce
Visibilité 1.0 Miles terrestres
Nuages Couvert 200 ft
Point de rosée 61 ° F
Humidité 100%
Précipitations 0.00 pouce
Profondeur de la couche neigeuse Non disponible.
UV 1 sur 12
Pollen 9.50 sur 12
Ozone Bon
PM2.5 Bon
Flu Activity Non disponible.
METAR KRHP 271255Z AUTO 00000KT 1SM BR OVC002 16/16 A3018 RMK AO2 T01610161

More Conditions Fewer Conditions

10-Day Weather Forecast

Almanac

Astronomie

Aug. 27, 2014 Lever Coucher
Temps réel 07:02 EDT 20:07 EDT
Crépuscule civil 06:36 EDT 20:33 EDT
Crépuscule nautique 06:04 EDT 21:04 EDT
Crépuscule astronomique 05:32 EDT 21:37 EDT
Lune 08:51 EDT 21:05 EDT
Durée de lumière visible 13h 57m
Longueur du jour
13h 05m
Tomorrow will be 2m 6s shorter.
Lune montante, 3% of the Moon is Illuminated
Aujourd'hui
Lune montante
Sep 2
Premier quartier
Sep 8
Pleine lune
Sep 15
Dernier quartier
Sep 24
Nouveau

Extrêmes aujourd'hui

State Highs State Lows

Community

WunderPhotos

Upload Photos

1,747,680 Photos téléchargées !

Nearby

Qualité de l'air

  Qualité de l'air Indice de la qualité de l'air Polluant
Hier Bon
OZONE
Hier Bon
PM2.5
Actuel Bon
PM2.5
Actuel Bon
OZONE
mercredi Bon
OZONE
mercredi Bon
PM2.5
jeudi Moyen
PM2.5
jeudi Bon
OZONE
vendredi Moyen
PM2.5
vendredi Bon
OZONE

Épaisseur de neige

Station Depth Altitude
Pas de nouvelles chutes de neige

Activité sismique

Ville Distance Mag. Time & Date
No recent earthquake activity has been reported nearby.
Minimum magnitude displayed is 2.5.

Températures des eaux côtières

Lieu Température
Aucun rapport de station

Stations météo à proximité